Time;durP1;ratioP1;P1;durP2;ratioP2;P2;SDS_P1;SDS_P2;PMS_P1;PMS_P2;Temp;Humidity;BMP_temperature;BMP_pressure;BME280_temperature;BME280_humidity;BME280_pressure;Samples;Min_cycle;Max_cycle;Signal;HPM_P1;HPM_P2
2022/02/08 00:00:05;;;;;;;7.90;2.70;;;;;;;;;;2615660;47;20431;-76
2022/02/08 00:02:37;;;;;;;6.20;2.60;;;;;;;;;;2616120;54;20396;-75
2022/02/08 00:05:08;;;;;;;11.47;3.63;;;;;;;;;;2616158;54;20415;-74
2022/02/08 00:07:35;;;;;;;8.43;2.83;;;;;;;;;;2616209;54;20408;-75
2022/02/08 00:10:03;;;;;;;14.17;3.60;;;;;;;;;;2615889;47;21329;-75
2022/02/08 00:12:30;;;;;;;6.77;3.20;;;;;;;;;;2616081;54;20948;-75
2022/02/08 00:14:56;;;;;;;13.10;3.27;;;;;;;;;;2615721;54;20443;-76
2022/02/08 00:17:23;;;;;;;7.87;3.63;;;;;;;;;;2615782;39;20842;-75
2022/02/08 00:19:49;;;;;;;19.27;4.27;;;;;;;;;;2616252;54;20976;-75
2022/02/08 00:22:15;;;;;;;9.50;3.87;;;;;;;;;;2615766;54;20944;-75
2022/02/08 00:24:46;;;;;;;7.43;3.47;;;;;;;;;;2616167;54;20455;-75
2022/02/08 00:27:13;;;;;;;7.67;2.80;;;;;;;;;;2617565;39;20799;-77
2022/02/08 00:29:40;;;;;;;12.87;3.90;;;;;;;;;;2616758;54;20408;-75
2022/02/08 00:32:07;;;;;;;14.63;5.20;;;;;;;;;;2616174;54;20427;-76
2022/02/08 00:34:34;;;;;;;5.43;3.43;;;;;;;;;;2616651;54;20440;-75
2022/02/08 00:37:02;;;;;;;5.10;2.97;;;;;;;;;;2616523;54;20395;-75
2022/02/08 00:39:30;;;;;;;10.40;3.27;;;;;;;;;;2616342;54;20991;-76
2022/02/08 00:42:04;;;;;;;9.33;4.03;;;;;;;;;;2616416;54;20429;-75
2022/02/08 00:45:05;;;;;;;4.53;2.20;;;;;;;;;;2616520;39;20785;-75
2022/02/08 00:47:37;;;;;;;12.53;4.70;;;;;;;;;;2615448;47;20419;-75
2022/02/08 00:50:08;;;;;;;8.97;3.47;;;;;;;;;;2615567;54;20419;-75
2022/02/08 00:52:36;;;;;;;10.77;2.90;;;;;;;;;;2615566;54;21265;-75
2022/02/08 00:55:29;;;;;;;10.17;3.87;;;;;;;;;;2615448;47;20419;-76
2022/02/08 00:57:55;;;;;;;11.33;3.43;;;;;;;;;;2615646;47;20436;-75
2022/02/08 01:00:24;;;;;;;9.80;3.47;;;;;;;;;;2615711;47;20423;-75
2022/02/08 01:02:53;;;;;;;14.63;3.43;;;;;;;;;;2615660;47;20505;-76
2022/02/08 01:05:50;;;;;;;11.17;4.17;;;;;;;;;;2615944;39;20873;-74
2022/02/08 01:08:19;;;;;;;9.10;3.47;;;;;;;;;;2615178;47;20487;-76
2022/02/08 01:10:45;;;;;;;12.97;3.90;;;;;;;;;;2615594;54;20404;-75
2022/02/08 01:13:13;;;;;;;8.57;3.50;;;;;;;;;;2615491;54;20449;-76
2022/02/08 01:15:39;;;;;;;9.80;3.90;;;;;;;;;;2615204;47;20432;-75
2022/02/08 01:25:05;;;;;;;17.23;4.27;;;;;;;;;;2615736;54;20438;-75
2022/02/08 01:27:37;;;;;;;12.03;4.97;;;;;;;;;;2615008;54;20395;-76
2022/02/08 01:49:09;;;;;;;18.80;5.57;;;;;;;;;;2616679;47;20411;-76
2022/02/08 01:51:36;;;;;;;17.83;5.70;;;;;;;;;;2616488;47;20408;-75
2022/02/08 02:10:27;;;;;;;22.53;7.17;;;;;;;;;;2616257;54;20449;-75
2022/02/08 02:26:03;;;;;;;12.90;5.73;;;;;;;;;;2616987;54;20470;-75
2022/02/08 02:28:53;;;;;;;25.47;8.50;;;;;;;;;;2616644;51;20450;-76
2022/02/08 02:31:21;;;;;;;19.57;8.63;;;;;;;;;;2615863;47;20417;-76
2022/02/08 02:33:49;;;;;;;19.70;7.90;;;;;;;;;;2616151;47;20423;-75
2022/02/08 02:36:17;;;;;;;15.80;6.00;;;;;;;;;;2615486;54;20399;-76
2022/02/08 02:38:43;;;;;;;17.50;6.43;;;;;;;;;;2615392;47;20431;-76
2022/02/08 02:41:12;;;;;;;13.40;7.03;;;;;;;;;;2615895;47;20522;-76
2022/02/08 02:43:40;;;;;;;11.97;6.37;;;;;;;;;;2616057;46;20554;-75
2022/02/08 02:46:07;;;;;;;14.63;6.83;;;;;;;;;;2615970;47;20480;-77
2022/02/08 02:48:34;;;;;;;19.53;7.60;;;;;;;;;;2615832;47;20420;-78
2022/02/08 02:51:01;;;;;;;8.53;5.87;;;;;;;;;;2615425;54;20404;-77
2022/02/08 02:53:35;;;;;;;13.70;7.73;;;;;;;;;;2615126;47;21016;-76
2022/02/08 02:56:08;;;;;;;20.13;8.40;;;;;;;;;;2613979;47;20428;-76
2022/02/08 02:58:37;;;;;;;25.30;8.90;;;;;;;;;;2615332;47;20519;-76
2022/02/08 03:54:45;;;;;;;9.80;7.73;;;;;;;;;;2615263;47;21403;-76
2022/02/08 04:10:25;;;;;;;11.77;8.50;;;;;;;;;;2613785;54;20423;-76
2022/02/08 11:45:36;;;;;;;7.07;5.23;;;;;;;;;;2614867;54;20538;-76
2022/02/08 11:48:17;;;;;;;8.70;4.87;;;;;;;;;;2614350;47;20451;-77
2022/02/08 11:53:41;;;;;;;7.57;5.90;;;;;;;;;;2614326;54;20418;-76
2022/02/08 12:09:29;;;;;;;7.17;5.20;;;;;;;;;;2614225;47;20592;-77
2022/02/08 12:31:34;;;;;;;5.07;3.50;;;;;;;;;;2615471;47;21083;-78
2022/02/08 12:34:19;;;;;;;6.33;4.27;;;;;;;;;;2615244;47;20426;-80
2022/02/08 12:48:42;;;;;;;5.67;4.83;;;;;;;;;;2614948;54;20470;-77
2022/02/08 12:56:35;;;;;;;6.97;3.40;;;;;;;;;;2614700;54;20427;-78
2022/02/08 14:01:59;;;;;;;5.80;2.60;;;;;;;;;;2616128;46;20437;-77
2022/02/08 14:17:39;;;;;;;5.70;2.87;;;;;;;;;;2615332;54;20403;-77
2022/02/08 14:25:52;;;;;;;5.00;2.60;;;;;;;;;;2615017;47;21020;-78
2022/02/08 14:34:13;;;;;;;2.93;1.93;;;;;;;;;;2614543;47;20440;-78
2022/02/08 15:09:31;;;;;;;8.43;3.00;;;;;;;;;;2615602;54;20530;-79
2022/02/08 15:12:06;;;;;;;6.87;2.53;;;;;;;;;;2614757;54;20932;-79
2022/02/08 15:14:38;;;;;;;5.63;2.93;;;;;;;;;;2614988;47;20431;-77
2022/02/08 15:17:05;;;;;;;5.43;2.47;;;;;;;;;;2615064;54;20443;-77
2022/02/08 15:19:33;;;;;;;5.93;2.90;;;;;;;;;;2615648;31;20819;-77
2022/02/08 15:22:00;;;;;;;5.60;2.40;;;;;;;;;;2615797;54;20436;-77
2022/02/08 15:24:26;;;;;;;5.97;2.80;;;;;;;;;;2614548;46;21137;-78
2022/02/08 15:26:53;;;;;;;6.30;2.97;;;;;;;;;;2614706;54;20474;-78
2022/02/08 15:29:19;;;;;;;3.67;2.27;;;;;;;;;;2614673;47;20444;-78
2022/02/08 15:31:46;;;;;;;8.30;3.20;;;;;;;;;;2615569;54;20480;-78
2022/02/08 15:34:12;;;;;;;8.90;3.03;;;;;;;;;;2614836;54;20408;-78
2022/02/08 15:36:39;;;;;;;4.40;3.10;;;;;;;;;;2614828;47;20447;-79
2022/02/08 15:39:09;;;;;;;4.10;3.00;;;;;;;;;;2614357;54;20507;-78
2022/02/08 15:41:39;;;;;;;5.57;3.20;;;;;;;;;;2615535;54;21051;-78
2022/02/08 15:44:09;;;;;;;7.20;3.60;;;;;;;;;;2613897;39;20894;-78
2022/02/08 15:46:36;;;;;;;5.53;3.40;;;;;;;;;;2614748;54;20426;-78
2022/02/08 15:49:03;;;;;;;9.70;3.63;;;;;;;;;;2614467;47;20430;-78
2022/02/08 16:10:06;;;;;;;3.40;2.67;;;;;;;;;;2614461;47;20425;-77
2022/02/08 16:20:14;;;;;;;4.90;3.03;;;;;;;;;;2614194;47;20439;-78
2022/02/08 16:25:47;;;;;;;3.20;2.60;;;;;;;;;;2615245;54;20404;-77
2022/02/08 16:28:24;;;;;;;9.70;3.53;;;;;;;;;;2614074;47;20462;-77
2022/02/08 16:31:22;;;;;;;5.93;3.37;;;;;;;;;;2614284;47;20974;-77
2022/02/08 16:56:03;;;;;;;3.40;3.10;;;;;;;;;;2615350;54;20419;-79
2022/02/08 17:01:09;;;;;;;3.93;2.67;;;;;;;;;;2614938;54;20538;-78
2022/02/08 17:03:40;;;;;;;7.97;3.77;;;;;;;;;;2615028;39;20836;-78
2022/02/08 17:06:07;;;;;;;3.83;3.40;;;;;;;;;;2614781;54;20415;-79
2022/02/08 17:08:33;;;;;;;7.60;4.20;;;;;;;;;;2614465;47;20531;-79
2022/02/08 17:11:02;;;;;;;4.00;3.70;;;;;;;;;;2615092;54;20404;-79
2022/02/08 17:46:19;;;;;;;4.67;4.20;;;;;;;;;;2614087;54;20427;-79
2022/02/08 17:48:45;;;;;;;4.07;3.63;;;;;;;;;;2614637;47;20417;-79
2022/02/08 17:51:11;;;;;;;4.57;4.17;;;;;;;;;;2615611;54;20486;-78
2022/02/08 17:53:38;;;;;;;15.13;4.60;;;;;;;;;;2615931;39;20794;-79
2022/02/08 17:56:05;;;;;;;4.30;4.00;;;;;;;;;;2615336;54;20410;-78
2022/02/08 17:58:33;;;;;;;8.33;3.73;;;;;;;;;;2614953;54;20501;-79
2022/02/08 18:01:01;;;;;;;6.40;4.50;;;;;;;;;;2615871;47;21087;-79
2022/02/08 18:03:27;;;;;;;9.90;6.50;;;;;;;;;;2614932;47;20542;-78
2022/02/08 18:05:54;;;;;;;15.77;6.87;;;;;;;;;;2613815;47;20538;-77
2022/02/08 18:08:23;;;;;;;6.50;3.37;;;;;;;;;;2614321;54;20538;-77
2022/02/08 18:10:55;;;;;;;6.27;4.10;;;;;;;;;;2614617;54;20416;-77
2022/02/08 18:13:22;;;;;;;5.57;3.87;;;;;;;;;;2613297;47;20435;-78
2022/02/08 18:15:48;;;;;;;3.90;3.60;;;;;;;;;;2615510;54;20432;-79
2022/02/08 18:18:25;;;;;;;8.00;4.40;;;;;;;;;;2614830;47;20422;-78
2022/02/08 18:20:59;;;;;;;7.03;3.93;;;;;;;;;;2613496;47;20489;-77
2022/02/08 18:23:59;;;;;;;7.80;4.67;;;;;;;;;;2615225;54;20431;-78
2022/02/08 19:12:36;;;;;;;7.40;6.57;;;;;;;;;;2615358;54;20924;-78
2022/02/08 19:18:06;;;;;;;8.17;4.50;;;;;;;;;;2614385;47;20416;-78
2022/02/08 19:20:38;;;;;;;3.20;3.00;;;;;;;;;;2614712;54;20430;-78
2022/02/08 19:23:04;;;;;;;5.90;3.87;;;;;;;;;;2615678;54;21399;-78
2022/02/08 19:25:31;;;;;;;6.33;4.63;;;;;;;;;;2614398;54;20434;-78
2022/02/08 19:27:57;;;;;;;5.93;4.30;;;;;;;;;;2615112;54;20452;-78
2022/02/08 19:30:24;;;;;;;8.90;4.70;;;;;;;;;;2614825;47;20543;-78
2022/02/08 19:32:50;;;;;;;4.10;3.80;;;;;;;;;;2614599;47;21381;-77
2022/02/08 19:35:17;;;;;;;5.07;4.00;;;;;;;;;;2614083;54;20407;-78
2022/02/08 19:37:46;;;;;;;6.97;3.90;;;;;;;;;;2615127;39;20788;-78
2022/02/08 19:40:12;;;;;;;5.40;3.30;;;;;;;;;;2614087;47;20411;-78
2022/02/08 19:42:38;;;;;;;4.10;3.67;;;;;;;;;;2614932;51;20427;-78
2022/02/08 19:45:15;;;;;;;7.77;3.80;;;;;;;;;;2614106;54;20450;-78
2022/02/08 19:47:41;;;;;;;3.43;3.13;;;;;;;;;;2615225;54;20455;-79
2022/02/08 19:50:08;;;;;;;11.13;4.70;;;;;;;;;;2613722;54;20447;-79
2022/02/08 19:52:35;;;;;;;4.40;3.77;;;;;;;;;;2614728;54;20499;-78
2022/02/08 19:55:23;;;;;;;4.03;3.57;;;;;;;;;;2614154;54;20426;-78
2022/02/08 19:57:51;;;;;;;11.73;8.40;;;;;;;;;;2614833;46;20427;-77
2022/02/08 20:00:24;;;;;;;13.50;6.60;;;;;;;;;;2613878;54;20419;-78
2022/02/08 20:02:54;;;;;;;5.97;3.87;;;;;;;;;;2615524;54;20391;-78
2022/02/08 20:05:27;;;;;;;5.97;4.03;;;;;;;;;;2614983;54;20420;-78
2022/02/08 20:07:55;;;;;;;6.20;3.80;;;;;;;;;;2614966;47;20981;-78
2022/02/08 20:10:23;;;;;;;8.00;4.30;;;;;;;;;;2614216;54;20410;-78
2022/02/08 20:12:49;;;;;;;7.27;3.50;;;;;;;;;;2614476;47;20419;-79
2022/02/08 20:15:15;;;;;;;4.10;3.57;;;;;;;;;;2613853;54;20412;-78
2022/02/08 20:17:41;;;;;;;3.83;3.23;;;;;;;;;;2615012;39;20833;-77
2022/02/08 20:20:12;;;;;;;5.20;3.80;;;;;;;;;;2614875;39;20785;-78
2022/02/08 20:22:44;;;;;;;4.43;3.70;;;;;;;;;;2614766;54;20414;-78
2022/02/08 20:25:13;;;;;;;3.23;3.00;;;;;;;;;;2614713;47;20434;-78
2022/02/08 20:28:26;;;;;;;3.50;2.97;;;;;;;;;;2615085;54;20462;-79
2022/02/08 20:30:29;;;;;;;4.43;3.60;;;;;;;;;;2615149;54;20978;-79
2022/02/08 20:32:56;;;;;;;5.10;3.60;;;;;;;;;;2615530;47;20630;-78
2022/02/08 20:35:24;;;;;;;4.80;3.43;;;;;;;;;;2614561;54;20526;-78
2022/02/08 20:37:52;;;;;;;3.93;3.43;;;;;;;;;;2613957;54;20423;-77
2022/02/08 20:40:21;;;;;;;7.43;4.23;;;;;;;;;;2614320;54;20435;-78
2022/02/08 20:42:50;;;;;;;5.13;3.87;;;;;;;;;;2614818;47;20430;-78
2022/02/08 20:45:17;;;;;;;6.93;3.60;;;;;;;;;;2614578;54;20416;-79
2022/02/08 20:47:46;;;;;;;3.83;2.97;;;;;;;;;;2614322;47;20424;-78
2022/02/08 20:50:15;;;;;;;5.57;3.50;;;;;;;;;;2614462;54;20428;-79
2022/02/08 20:52:57;;;;;;;7.73;3.57;;;;;;;;;;2614247;39;20758;-79
2022/02/08 20:55:25;;;;;;;3.37;3.07;;;;;;;;;;2614082;54;20406;-78
2022/02/08 20:58:02;;;;;;;5.43;2.90;;;;;;;;;;2614149;54;20404;-77
2022/02/08 21:00:29;;;;;;;3.77;2.73;;;;;;;;;;2614504;54;20500;-78
2022/02/08 21:03:12;;;;;;;6.73;2.90;;;;;;;;;;2614910;54;20424;-78
2022/02/08 21:05:49;;;;;;;3.27;2.97;;;;;;;;;;2614390;54;20998;-78
2022/02/08 21:08:15;;;;;;;3.63;3.33;;;;;;;;;;2614706;54;20421;-78
2022/02/08 21:10:47;;;;;;;5.33;3.20;;;;;;;;;;2614160;54;20423;-78
2022/02/08 21:13:16;;;;;;;4.80;3.10;;;;;;;;;;2614580;47;20427;-78
2022/02/08 21:15:42;;;;;;;6.23;3.50;;;;;;;;;;2614409;54;20400;-77
2022/02/08 21:18:11;;;;;;;5.00;4.10;;;;;;;;;;2614415;47;20454;-77
2022/02/08 21:20:37;;;;;;;5.60;4.00;;;;;;;;;;2614917;54;21022;-78
2022/02/08 21:23:03;;;;;;;5.40;4.20;;;;;;;;;;2614179;54;20456;-78
2022/02/08 21:25:33;;;;;;;3.70;2.93;;;;;;;;;;2614399;54;20418;-78
2022/02/08 21:28:02;;;;;;;6.40;3.00;;;;;;;;;;2613724;54;21013;-78
2022/02/08 21:31:29;;;;;;;3.50;2.50;;;;;;;;;;2615578;39;20792;-78
2022/02/08 21:44:46;;;;;;;6.20;3.40;;;;;;;;;;2614800;39;20851;-77
2022/02/08 21:52:28;;;;;;;3.90;3.30;;;;;;;;;;2614817;47;20964;-79
2022/02/08 21:54:55;;;;;;;3.20;2.63;;;;;;;;;;2615409;54;20411;-78
2022/02/08 21:57:30;;;;;;;5.33;3.53;;;;;;;;;;2614687;47;20427;-78
2022/02/08 21:59:57;;;;;;;3.80;2.30;;;;;;;;;;2614862;39;20797;-79
2022/02/08 22:02:23;;;;;;;3.83;2.90;;;;;;;;;;2614953;54;20423;-78
2022/02/08 22:04:50;;;;;;;5.97;2.27;;;;;;;;;;2615870;54;20454;-78
2022/02/08 22:07:16;;;;;;;6.60;3.30;;;;;;;;;;2615225;54;20420;-77
2022/02/08 22:09:54;;;;;;;6.00;3.33;;;;;;;;;;2615017;54;20467;-77
2022/02/08 22:23:48;;;;;;;4.97;2.93;;;;;;;;;;2614101;54;20460;-78
2022/02/08 22:31:43;;;;;;;5.20;3.60;;;;;;;;;;2615962;54;20423;-77
2022/02/08 22:34:21;;;;;;;3.37;2.63;;;;;;;;;;2615366;54;20492;-78
2022/02/08 22:37:07;;;;;;;4.67;4.27;;;;;;;;;;2614884;47;20466;-78
2022/02/08 22:42:09;;;;;;;5.53;3.10;;;;;;;;;;2614622;54;20454;-78
2022/02/08 22:44:45;;;;;;;3.87;3.57;;;;;;;;;;2615232;47;20446;-77
2022/02/08 22:47:12;;;;;;;10.30;4.27;;;;;;;;;;2615087;54;20425;-79
2022/02/08 22:49:38;;;;;;;4.87;4.47;;;;;;;;;;2614835;47;20430;-78
2022/02/08 22:52:07;;;;;;;10.13;3.97;;;;;;;;;;2615223;47;20432;-78
2022/02/08 22:54:33;;;;;;;4.53;3.87;;;;;;;;;;2616138;39;20859;-78
2022/02/08 22:57:00;;;;;;;6.20;4.17;;;;;;;;;;2615782;39;20947;-79
2022/02/08 22:59:26;;;;;;;7.90;4.90;;;;;;;;;;2614165;47;20479;-78
2022/02/08 23:01:54;;;;;;;6.63;4.00;;;;;;;;;;2615285;54;20442;-78
2022/02/08 23:04:23;;;;;;;5.47;4.97;;;;;;;;;;2614237;54;20391;-77
2022/02/08 23:06:52;;;;;;;5.07;4.30;;;;;;;;;;2614977;54;21051;-78
2022/02/08 23:09:30;;;;;;;7.30;4.27;;;;;;;;;;2615288;47;20430;-79
2022/02/08 23:14:33;;;;;;;6.13;4.17;;;;;;;;;;2614608;47;20462;-78
2022/02/08 23:38:56;;;;;;;4.60;4.07;;;;;;;;;;2616006;54;20419;-78
2022/02/08 23:41:23;;;;;;;7.40;4.40;;;;;;;;;;2615593;54;20415;-78
2022/02/08 23:43:51;;;;;;;6.07;5.20;;;;;;;;;;2614207;47;20424;-77
2022/02/08 23:46:21;;;;;;;5.83;4.33;;;;;;;;;;2615806;54;20419;-78
2022/02/08 23:51:22;;;;;;;5.90;4.30;;;;;;;;;;2615451;47;20428;-78
2022/02/08 23:53:57;;;;;;;4.80;4.30;;;;;;;;;;2614044;54;20431;-78
2022/02/08 23:56:53;;;;;;;8.60;4.17;;;;;;;;;;2614527;54;20417;-78
2022/02/08 23:59:17;;;;;;;8.67;4.17;;;;;;;;;;2615384;54;20431;-78
